sensor_id;sensor_type;location;lat;lon;timestamp;pressure;altitude;pressure_sealevel;temperature;humidity
50682;BME280;36779;52.168;20.878;2023-04-27T00:00:31;100522.92;;;1.67;58.25
50682;BME280;36779;52.168;20.878;2023-04-27T00:03:23;100520.16;;;1.61;58.31
50682;BME280;36779;52.168;20.878;2023-04-27T00:06:17;100517.06;;;1.55;58.28
50682;BME280;36779;52.168;20.878;2023-04-27T00:09:09;100515.46;;;1.50;58.24
50682;BME280;36779;52.168;20.878;2023-04-27T00:12:03;100518.66;;;1.44;58.30
50682;BME280;36779;52.168;20.878;2023-04-27T00:15:00;100518.61;;;1.37;58.33
50682;BME280;36779;52.168;20.878;2023-04-27T00:17:53;100522.79;;;1.32;58.30
50682;BME280;36779;52.168;20.878;2023-04-27T00:20:50;100520.63;;;1.30;58.53
50682;BME280;36779;52.168;20.878;2023-04-27T00:23:43;100523.73;;;1.33;58.59
50682;BME280;36779;52.168;20.878;2023-04-27T00:26:36;100522.44;;;1.37;58.78
50682;BME280;36779;52.168;20.878;2023-04-27T00:29:28;100525.98;;;1.39;58.64
50682;BME280;36779;52.168;20.878;2023-04-27T00:32:21;100526.27;;;1.35;58.72
50682;BME280;36779;52.168;20.878;2023-04-27T00:35:14;100530.75;;;1.28;58.60
50682;BME280;36779;52.168;20.878;2023-04-27T00:38:07;100532.66;;;1.23;58.75
50682;BME280;36779;52.168;20.878;2023-04-27T00:41:05;100531.17;;;1.16;58.75
50682;BME280;36779;52.168;20.878;2023-04-27T00:43:58;100532.90;;;1.11;58.75
50682;BME280;36779;52.168;20.878;2023-04-27T00:46:53;100536.90;;;1.08;58.93
50682;BME280;36779;52.168;20.878;2023-04-27T00:49:47;100536.34;;;1.03;58.95
50682;BME280;36779;52.168;20.878;2023-04-27T00:52:41;100537.29;;;0.97;58.92
50682;BME280;36779;52.168;20.878;2023-04-27T00:55:35;100537.30;;;0.88;58.92
50682;BME280;36779;52.168;20.878;2023-04-27T00:58:28;100542.33;;;0.83;59.04
50682;BME280;36779;52.168;20.878;2023-04-27T01:01:21;100548.36;;;0.82;59.18
50682;BME280;36779;52.168;20.878;2023-04-27T01:04:13;100544.45;;;0.83;59.20
50682;BME280;36779;52.168;20.878;2023-04-27T01:07:08;100543.04;;;0.86;59.34
50682;BME280;36779;52.168;20.878;2023-04-27T01:10:02;100544.02;;;0.87;59.33
50682;BME280;36779;52.168;20.878;2023-04-27T01:12:55;100546.41;;;0.88;59.38
50682;BME280;36779;52.168;20.878;2023-04-27T01:15:48;100552.98;;;0.87;59.27
50682;BME280;36779;52.168;20.878;2023-04-27T01:18:44;100550.52;;;0.84;59.29
50682;BME280;36779;52.168;20.878;2023-04-27T01:21:37;100551.98;;;0.83;59.38
50682;BME280;36779;52.168;20.878;2023-04-27T01:24:30;100554.77;;;0.83;59.45
50682;BME280;36779;52.168;20.878;2023-04-27T01:27:26;100555.11;;;0.89;59.67
50682;BME280;36779;52.168;20.878;2023-04-27T01:30:19;100554.48;;;0.85;59.58
50682;BME280;36779;52.168;20.878;2023-04-27T01:33:12;100557.59;;;0.83;59.67
50682;BME280;36779;52.168;20.878;2023-04-27T01:36:08;100556.17;;;0.80;59.63
50682;BME280;36779;52.168;20.878;2023-04-27T01:39:01;100551.91;;;0.79;59.70
50682;BME280;36779;52.168;20.878;2023-04-27T01:41:49;100551.11;;;0.72;59.76
50682;BME280;36779;52.168;20.878;2023-04-27T01:44:44;100553.55;;;0.63;59.69
50682;BME280;36779;52.168;20.878;2023-04-27T01:47:37;100555.31;;;0.57;59.61
50682;BME280;36779;52.168;20.878;2023-04-27T01:50:30;100562.27;;;0.47;59.55
50682;BME280;36779;52.168;20.878;2023-04-27T01:53:23;100565.08;;;0.38;59.64
50682;BME280;36779;52.168;20.878;2023-04-27T01:56:18;100569.04;;;0.30;59.63
50682;BME280;36779;52.168;20.878;2023-04-27T01:59:11;100574.23;;;0.31;59.82
50682;BME280;36779;52.168;20.878;2023-04-27T02:02:04;100574.78;;;0.36;59.84
50682;BME280;36779;52.168;20.878;2023-04-27T02:05:00;100572.02;;;0.41;60.02
50682;BME280;36779;52.168;20.878;2023-04-27T02:07:53;100571.94;;;0.40;59.96
50682;BME280;36779;52.168;20.878;2023-04-27T02:10:46;100571.60;;;0.40;60.10
50682;BME280;36779;52.168;20.878;2023-04-27T02:13:40;100568.92;;;0.46;60.15
50682;BME280;36779;52.168;20.878;2023-04-27T02:16:34;100573.06;;;0.47;60.17
50682;BME280;36779;52.168;20.878;2023-04-27T02:19:27;100572.23;;;0.58;60.36
50682;BME280;36779;52.168;20.878;2023-04-27T02:22:21;100568.23;;;0.58;60.38
50682;BME280;36779;52.168;20.878;2023-04-27T02:25:09;100566.59;;;0.59;60.38
50682;BME280;36779;52.168;20.878;2023-04-27T02:28:02;100562.33;;;0.51;60.27
50682;BME280;36779;52.168;20.878;2023-04-27T02:30:56;100558.77;;;0.47;60.33
50682;BME280;36779;52.168;20.878;2023-04-27T02:33:51;100558.05;;;0.47;60.43
50682;BME280;36779;52.168;20.878;2023-04-27T02:36:44;100562.52;;;0.39;60.39
50682;BME280;36779;52.168;20.878;2023-04-27T02:39:37;100567.75;;;0.31;60.21
50682;BME280;36779;52.168;20.878;2023-04-27T02:42:30;100568.30;;;0.19;60.20
50682;BME280;36779;52.168;20.878;2023-04-27T02:45:23;100568.48;;;0.16;60.29
50682;BME280;36779;52.168;20.878;2023-04-27T02:48:16;100578.67;;;0.21;60.55
50682;BME280;36779;52.168;20.878;2023-04-27T02:51:09;100580.33;;;0.22;60.47
50682;BME280;36779;52.168;20.878;2023-04-27T02:54:02;100578.36;;;0.20;60.41
50682;BME280;36779;52.168;20.878;2023-04-27T02:56:55;100581.35;;;0.17;60.39
50682;BME280;36779;52.168;20.878;2023-04-27T02:59:47;100578.42;;;0.22;60.66
50682;BME280;36779;52.168;20.878;2023-04-27T03:02:40;100580.75;;;0.33;60.79
50682;BME280;36779;52.168;20.878;2023-04-27T03:05:33;100579.77;;;0.32;60.73
50682;BME280;36779;52.168;20.878;2023-04-27T03:08:29;100581.38;;;0.32;60.90
50682;BME280;36779;52.168;20.878;2023-04-27T03:11:22;100583.44;;;0.35;60.99
50682;BME280;36779;52.168;20.878;2023-04-27T03:14:14;100585.60;;;0.31;60.89
50682;BME280;36779;52.168;20.878;2023-04-27T03:17:08;100586.93;;;0.35;61.10
50682;BME280;36779;52.168;20.878;2023-04-27T03:20:01;100585.80;;;0.36;61.12
50682;BME280;36779;52.168;20.878;2023-04-27T03:22:55;100587.96;;;0.35;61.04
50682;BME280;36779;52.168;20.878;2023-04-27T03:25:50;100588.30;;;0.35;61.10
50682;BME280;36779;52.168;20.878;2023-04-27T03:28:43;100589.59;;;0.34;61.06
50682;BME280;36779;52.168;20.878;2023-04-27T03:31:36;100588.59;;;0.39;61.21
50682;BME280;36779;52.168;20.878;2023-04-27T03:34:29;100591.48;;;0.46;61.37
50682;BME280;36779;52.168;20.878;2023-04-27T03:37:23;100587.11;;;0.55;61.41
50682;BME280;36779;52.168;20.878;2023-04-27T03:40:16;100587.02;;;0.65;61.55
50682;BME280;36779;52.168;20.878;2023-04-27T03:43:09;100587.56;;;0.74;61.53
50682;BME280;36779;52.168;20.878;2023-04-27T03:46:12;100586.81;;;0.77;61.60
50682;BME280;36779;52.168;20.878;2023-04-27T03:49:09;100591.98;;;0.79;61.31
50682;BME280;36779;52.168;20.878;2023-04-27T03:52:06;100592.97;;;0.71;61.27
50682;BME280;36779;52.168;20.878;2023-04-27T03:55:00;100599.01;;;0.64;61.13
50682;BME280;36779;52.168;20.878;2023-04-27T03:57:54;100605.48;;;0.52;61.09
50682;BME280;36779;52.168;20.878;2023-04-27T04:00:47;100616.98;;;0.50;61.12
50682;BME280;36779;52.168;20.878;2023-04-27T04:03:40;100620.85;;;0.43;61.11
50682;BME280;36779;52.168;20.878;2023-04-27T04:06:32;100625.29;;;0.42;61.18
50682;BME280;36779;52.168;20.878;2023-04-27T04:09:25;100622.90;;;0.44;61.32
50682;BME280;36779;52.168;20.878;2023-04-27T04:12:13;100623.44;;;0.47;61.31
50682;BME280;36779;52.168;20.878;2023-04-27T04:14:59;100621.38;;;0.55;61.56
50682;BME280;36779;52.168;20.878;2023-04-27T04:17:52;100625.30;;;0.91;62.34
50682;BME280;36779;52.168;20.878;2023-04-27T04:20:45;100622.08;;;1.65;63.21
50682;BME280;36779;52.168;20.878;2023-04-27T04:23:40;100625.45;;;2.81;64.20
50682;BME280;36779;52.168;20.878;2023-04-27T04:26:34;100623.17;;;4.17;64.82
50682;BME280;36779;52.168;20.878;2023-04-27T04:29:27;100625.70;;;5.35;64.75
50682;BME280;36779;52.168;20.878;2023-04-27T04:32:20;100624.58;;;6.33;64.56
50682;BME280;36779;52.168;20.878;2023-04-27T04:35:14;100622.38;;;7.26;64.34
50682;BME280;36779;52.168;20.878;2023-04-27T04:38:10;100621.02;;;8.37;64.64
50682;BME280;36779;52.168;20.878;2023-04-27T04:41:02;100619.58;;;9.31;64.32
50682;BME280;36779;52.168;20.878;2023-04-27T04:43:55;100620.31;;;10.07;64.07
50682;BME280;36779;52.168;20.878;2023-04-27T04:46:48;100623.77;;;10.87;63.95
50682;BME280;36779;52.168;20.878;2023-04-27T04:49:41;100623.42;;;11.53;63.67
50682;BME280;36779;52.168;20.878;2023-04-27T04:52:34;100622.07;;;12.42;63.66
50682;BME280;36779;52.168;20.878;2023-04-27T04:55:27;100625.41;;;13.10;63.10
50682;BME280;36779;52.168;20.878;2023-04-27T04:58:20;100623.87;;;13.50;62.09
50682;BME280;36779;52.168;20.878;2023-04-27T05:01:07;100623.30;;;14.00;61.99
50682;BME280;36779;52.168;20.878;2023-04-27T05:03:51;100624.54;;;14.54;61.70
50682;BME280;36779;52.168;20.878;2023-04-27T05:06:44;100629.65;;;15.17;61.66
50682;BME280;36779;52.168;20.878;2023-04-27T05:09:27;100634.09;;;15.63;60.39
50682;BME280;36779;52.168;20.878;2023-04-27T05:12:21;100640.60;;;15.74;59.63
50682;BME280;36779;52.168;20.878;2023-04-27T05:15:14;100637.82;;;16.14;59.69
50682;BME280;36779;52.168;20.878;2023-04-27T05:18:06;100637.59;;;16.65;59.37
50682;BME280;36779;52.168;20.878;2023-04-27T05:21:01;100636.66;;;17.08;59.26
50682;BME280;36779;52.168;20.878;2023-04-27T05:23:54;100631.84;;;17.51;58.99
50682;BME280;36779;52.168;20.878;2023-04-27T05:26:46;100635.54;;;17.82;58.24
50682;BME280;36779;52.168;20.878;2023-04-27T05:29:39;100637.43;;;18.10;57.72
50682;BME280;36779;52.168;20.878;2023-04-27T05:32:32;100634.20;;;18.18;57.24
50682;BME280;36779;52.168;20.878;2023-04-27T05:35:27;100634.08;;;18.12;56.88
50682;BME280;36779;52.168;20.878;2023-04-27T05:38:18;100639.00;;;17.78;55.82
50682;BME280;36779;52.168;20.878;2023-04-27T05:41:11;100641.66;;;17.31;55.30
50682;BME280;36779;52.168;20.878;2023-04-27T05:44:03;100641.05;;;16.58;54.78
50682;BME280;36779;52.168;20.878;2023-04-27T05:46:55;100647.55;;;15.82;54.22
50682;BME280;36779;52.168;20.878;2023-04-27T05:49:52;100654.48;;;15.00;53.51
50682;BME280;36779;52.168;20.878;2023-04-27T05:52:44;100657.23;;;14.26;53.65
50682;BME280;36779;52.168;20.878;2023-04-27T05:55:37;100651.80;;;13.67;53.92
50682;BME280;36779;52.168;20.878;2023-04-27T05:58:30;100652.50;;;13.30;54.35
50682;BME280;36779;52.168;20.878;2023-04-27T06:01:23;100653.73;;;13.00;54.25
50682;BME280;36779;52.168;20.878;2023-04-27T06:04:15;100653.53;;;12.75;54.44
50682;BME280;36779;52.168;20.878;2023-04-27T06:07:13;100655.89;;;12.29;53.95
50682;BME280;36779;52.168;20.878;2023-04-27T06:10:09;100661.65;;;11.91;54.10
50682;BME280;36779;52.168;20.878;2023-04-27T06:13:02;100661.79;;;11.47;54.12
50682;BME280;36779;52.168;20.878;2023-04-27T06:15:55;100666.94;;;11.13;54.20
50682;BME280;36779;52.168;20.878;2023-04-27T06:18:49;100663.98;;;10.70;53.94
50682;BME280;36779;52.168;20.878;2023-04-27T06:21:42;100670.58;;;10.31;54.04
50682;BME280;36779;52.168;20.878;2023-04-27T06:24:35;100671.83;;;9.85;54.04
50682;BME280;36779;52.168;20.878;2023-04-27T06:27:28;100674.23;;;9.62;54.26
50682;BME280;36779;52.168;20.878;2023-04-27T06:30:20;100676.02;;;9.47;54.48
50682;BME280;36779;52.168;20.878;2023-04-27T06:33:12;100678.02;;;9.31;54.51
50682;BME280;36779;52.168;20.878;2023-04-27T06:36:00;100679.14;;;9.20;54.54
50682;BME280;36779;52.168;20.878;2023-04-27T06:38:53;100679.98;;;9.39;55.27
50682;BME280;36779;52.168;20.878;2023-04-27T06:41:46;100683.91;;;9.92;55.63
50682;BME280;36779;52.168;20.878;2023-04-27T06:44:40;100678.09;;;10.26;55.74
50682;BME280;36779;52.168;20.878;2023-04-27T06:47:33;100682.25;;;10.92;56.38
50682;BME280;36779;52.168;20.878;2023-04-27T06:50:28;100680.14;;;11.54;55.92
50682;BME280;36779;52.168;20.878;2023-04-27T06:53:19;100684.11;;;11.84;55.37
50682;BME280;36779;52.168;20.878;2023-04-27T06:56:13;100685.69;;;11.94;54.93
50682;BME280;36779;52.168;20.878;2023-04-27T06:59:06;100690.17;;;11.97;54.77
50682;BME280;36779;52.168;20.878;2023-04-27T07:02:00;100695.28;;;11.73;54.19
50682;BME280;36779;52.168;20.878;2023-04-27T07:04:53;100699.63;;;11.57;54.49
50682;BME280;36779;52.168;20.878;2023-04-27T07:07:47;100696.17;;;11.59;54.67
50682;BME280;36779;52.168;20.878;2023-04-27T07:10:39;100695.84;;;11.69;55.01
50682;BME280;36779;52.168;20.878;2023-04-27T07:13:32;100694.73;;;11.84;54.99
50682;BME280;36779;52.168;20.878;2023-04-27T07:16:24;100691.98;;;11.99;55.14
50682;BME280;36779;52.168;20.878;2023-04-27T07:19:17;100694.83;;;11.97;54.79
50682;BME280;36779;52.168;20.878;2023-04-27T07:22:10;100698.82;;;11.95;54.79
50682;BME280;36779;52.168;20.878;2023-04-27T07:25:03;100700.41;;;12.03;54.98
50682;BME280;36779;52.168;20.878;2023-04-27T07:27:46;100700.30;;;12.05;55.10
50682;BME280;36779;52.168;20.878;2023-04-27T07:30:38;100698.54;;;12.27;55.58
50682;BME280;36779;52.168;20.878;2023-04-27T07:33:32;100691.59;;;12.50;55.40
50682;BME280;36779;52.168;20.878;2023-04-27T07:36:27;100692.67;;;12.44;54.74
50682;BME280;36779;52.168;20.878;2023-04-27T07:39:22;100698.97;;;12.08;54.23
50682;BME280;36779;52.168;20.878;2023-04-27T07:42:16;100695.54;;;11.70;54.09
50682;BME280;36779;52.168;20.878;2023-04-27T07:45:11;100699.14;;;11.42;54.23
50682;BME280;36779;52.168;20.878;2023-04-27T07:48:04;100699.09;;;11.28;54.55
50682;BME280;36779;52.168;20.878;2023-04-27T07:50:58;100701.23;;;11.36;54.87
50682;BME280;36779;52.168;20.878;2023-04-27T07:53:50;100696.45;;;11.53;54.80
50682;BME280;36779;52.168;20.878;2023-04-27T07:56:43;100700.21;;;11.60;54.64
50682;BME280;36779;52.168;20.878;2023-04-27T07:59:36;100696.34;;;11.69;54.84
50682;BME280;36779;52.168;20.878;2023-04-27T08:02:29;100701.77;;;11.67;54.60
50682;BME280;36779;52.168;20.878;2023-04-27T08:05:22;100705.73;;;11.65;54.67
50682;BME280;36779;52.168;20.878;2023-04-27T08:08:18;100713.80;;;11.59;54.53
50682;BME280;36779;52.168;20.878;2023-04-27T08:11:11;100713.83;;;11.43;54.21
50682;BME280;36779;52.168;20.878;2023-04-27T08:14:03;100709.48;;;11.17;54.22
50682;BME280;36779;52.168;20.878;2023-04-27T08:17:00;100711.83;;;11.20;54.68
50682;BME280;36779;52.168;20.878;2023-04-27T08:19:53;100711.30;;;11.38;55.10
50682;BME280;36779;52.168;20.878;2023-04-27T08:22:46;100707.84;;;11.65;55.25
50682;BME280;36779;52.168;20.878;2023-04-27T08:25:38;100710.13;;;11.87;55.14
50682;BME280;36779;52.168;20.878;2023-04-27T08:28:31;100712.67;;;11.98;55.09
50682;BME280;36779;52.168;20.878;2023-04-27T08:31:25;100714.41;;;11.98;54.80
50682;BME280;36779;52.168;20.878;2023-04-27T08:34:17;100709.04;;;11.99;54.62
50682;BME280;36779;52.168;20.878;2023-04-27T08:37:11;100711.02;;;11.94;54.63
50682;BME280;36779;52.168;20.878;2023-04-27T08:40:08;100711.98;;;11.83;54.39
50682;BME280;36779;52.168;20.878;2023-04-27T08:43:02;100709.56;;;11.64;54.27
50682;BME280;36779;52.168;20.878;2023-04-27T08:45:55;100711.45;;;11.76;55.03
50682;BME280;36779;52.168;20.878;2023-04-27T08:48:50;100708.34;;;12.17;55.42
50682;BME280;36779;52.168;20.878;2023-04-27T08:51:43;100706.64;;;12.51;55.12
50682;BME280;36779;52.168;20.878;2023-04-27T08:54:28;100702.65;;;12.71;55.38
50682;BME280;36779;52.168;20.878;2023-04-27T08:57:24;100703.42;;;13.02;55.24
50682;BME280;36779;52.168;20.878;2023-04-27T09:00:19;100700.25;;;13.03;54.47
50682;BME280;36779;52.168;20.878;2023-04-27T09:03:20;100702.36;;;12.90;53.86
50682;BME280;36779;52.168;20.878;2023-04-27T09:06:14;100699.82;;;12.66;53.86
50682;BME280;36779;52.168;20.878;2023-04-27T09:09:07;100702.09;;;12.45;53.69
50682;BME280;36779;52.168;20.878;2023-04-27T09:12:12;100697.13;;;12.25;53.81
50682;BME280;36779;52.168;20.878;2023-04-27T09:15:06;100698.39;;;12.50;54.45
50682;BME280;36779;52.168;20.878;2023-04-27T09:17:55;100697.19;;;12.95;54.86
50682;BME280;36779;52.168;20.878;2023-04-27T09:20:52;100695.02;;;13.23;54.33
50682;BME280;36779;52.168;20.878;2023-04-27T09:23:46;100686.23;;;13.50;54.65
50682;BME280;36779;52.168;20.878;2023-04-27T09:26:38;100685.77;;;13.79;54.20
50682;BME280;36779;52.168;20.878;2023-04-27T09:29:37;100686.61;;;13.78;53.78
50682;BME280;36779;52.168;20.878;2023-04-27T09:32:30;100682.09;;;13.90;54.05
50682;BME280;36779;52.168;20.878;2023-04-27T09:35:24;100684.48;;;13.98;53.74
50682;BME280;36779;52.168;20.878;2023-04-27T09:38:18;100684.65;;;13.86;53.51
50682;BME280;36779;52.168;20.878;2023-04-27T09:41:11;100685.47;;;13.57;52.54
50682;BME280;36779;52.168;20.878;2023-04-27T09:44:04;100683.71;;;13.17;52.45
50682;BME280;36779;52.168;20.878;2023-04-27T09:46:59;100686.17;;;12.75;52.50
50682;BME280;36779;52.168;20.878;2023-04-27T09:49:52;100689.48;;;12.39;52.32
50682;BME280;36779;52.168;20.878;2023-04-27T09:52:47;100701.38;;;11.98;52.19
50682;BME280;36779;52.168;20.878;2023-04-27T09:55:41;100708.42;;;11.59;52.19
50682;BME280;36779;52.168;20.878;2023-04-27T09:58:49;100716.48;;;11.23;52.27
50682;BME280;36779;52.168;20.878;2023-04-27T10:01:39;100724.75;;;10.86;52.40
50682;BME280;36779;52.168;20.878;2023-04-27T10:04:48;100729.98;;;10.48;52.20
50682;BME280;36779;52.168;20.878;2023-04-27T10:07:48;100737.51;;;10.02;52.26
50682;BME280;36779;52.168;20.878;2023-04-27T10:10:49;100736.94;;;9.69;52.37
50682;BME280;36779;52.168;20.878;2023-04-27T10:13:52;100736.13;;;9.42;52.52
50682;BME280;36779;52.168;20.878;2023-04-27T10:16:49;100726.16;;;9.20;52.57
50682;BME280;36779;52.168;20.878;2023-04-27T10:20:02;100726.56;;;9.09;52.78
50682;BME280;36779;52.168;20.878;2023-04-27T10:22:59;100725.02;;;9.02;52.96
50682;BME280;36779;52.168;20.878;2023-04-27T10:25:52;100722.66;;;8.97;52.92
50682;BME280;36779;52.168;20.878;2023-04-27T10:28:54;100725.29;;;8.95;52.96
50682;BME280;36779;52.168;20.878;2023-04-27T10:31:48;100719.83;;;8.95;53.05
50682;BME280;36779;52.168;20.878;2023-04-27T10:34:41;100719.05;;;8.96;53.10
50682;BME280;36779;52.168;20.878;2023-04-27T10:37:41;100717.56;;;8.99;53.02
50682;BME280;36779;52.168;20.878;2023-04-27T10:40:33;100719.80;;;9.03;53.21
50682;BME280;36779;52.168;20.878;2023-04-27T10:43:27;100719.88;;;9.14;53.30
50682;BME280;36779;52.168;20.878;2023-04-27T10:46:22;100720.45;;;9.26;53.44
50682;BME280;36779;52.168;20.878;2023-04-27T10:49:15;100718.77;;;9.40;53.44
50682;BME280;36779;52.168;20.878;2023-04-27T10:52:08;100716.69;;;9.56;53.64
50682;BME280;36779;52.168;20.878;2023-04-27T10:55:11;100716.65;;;9.70;53.51
50682;BME280;36779;52.168;20.878;2023-04-27T10:58:04;100716.75;;;9.87;53.77
50682;BME280;36779;52.168;20.878;2023-04-27T11:00:57;100716.27;;;10.04;53.85
50682;BME280;36779;52.168;20.878;2023-04-27T11:03:56;100715.44;;;10.20;53.80
50682;BME280;36779;52.168;20.878;2023-04-27T11:06:49;100715.70;;;10.29;53.68
50682;BME280;36779;52.168;20.878;2023-04-27T11:09:43;100715.40;;;10.39;53.83
50682;BME280;36779;52.168;20.878;2023-04-27T11:12:26;100715.36;;;10.69;54.10
50682;BME280;36779;52.168;20.878;2023-04-27T11:15:19;100723.17;;;11.10;54.35
50682;BME280;36779;52.168;20.878;2023-04-27T11:18:12;100724.50;;;11.37;54.21
50682;BME280;36779;52.168;20.878;2023-04-27T11:21:10;100728.36;;;11.47;53.82
50682;BME280;36779;52.168;20.878;2023-04-27T11:24:07;100727.07;;;11.65;53.93
50682;BME280;36779;52.168;20.878;2023-04-27T11:27:05;100725.41;;;11.83;53.83
50682;BME280;36779;52.168;20.878;2023-04-27T11:29:57;100721.57;;;11.88;53.43
50682;BME280;36779;52.168;20.878;2023-04-27T11:32:51;100726.31;;;11.88;53.33
50682;BME280;36779;52.168;20.878;2023-04-27T11:35:45;100724.36;;;11.94;53.17
50682;BME280;36779;52.168;20.878;2023-04-27T11:38:37;100722.25;;;11.92;53.08
50682;BME280;36779;52.168;20.878;2023-04-27T11:41:35;100722.52;;;11.96;53.21
50682;BME280;36779;52.168;20.878;2023-04-27T11:44:29;100719.17;;;12.04;53.27
50682;BME280;36779;52.168;20.878;2023-04-27T11:47:22;100717.96;;;11.99;52.98
50682;BME280;36779;52.168;20.878;2023-04-27T11:50:10;100717.73;;;12.01;53.04
50682;BME280;36779;52.168;20.878;2023-04-27T11:53:03;100714.28;;;12.09;53.19
50682;BME280;36779;52.168;20.878;2023-04-27T11:55:57;100712.17;;;12.23;53.13
50682;BME280;36779;52.168;20.878;2023-04-27T11:58:52;100710.84;;;12.32;53.13
50682;BME280;36779;52.168;20.878;2023-04-27T12:01:45;100709.78;;;12.39;53.14
50682;BME280;36779;52.168;20.878;2023-04-27T12:04:38;100708.21;;;12.43;53.00
50682;BME280;36779;52.168;20.878;2023-04-27T12:07:31;100709.88;;;12.48;52.86
50682;BME280;36779;52.168;20.878;2023-04-27T12:10:24;100707.77;;;12.49;52.81
50682;BME280;36779;52.168;20.878;2023-04-27T12:13:17;100707.14;;;12.53;52.75
50682;BME280;36779;52.168;20.878;2023-04-27T12:16:10;100704.51;;;12.51;52.56
50682;BME280;36779;52.168;20.878;2023-04-27T12:19:05;100701.16;;;12.49;52.67
50682;BME280;36779;52.168;20.878;2023-04-27T12:21:51;100697.78;;;12.46;52.37
50682;BME280;36779;52.168;20.878;2023-04-27T12:24:44;100700.59;;;12.36;52.29
50682;BME280;36779;52.168;20.878;2023-04-27T12:27:37;100703.43;;;12.35;52.24
50682;BME280;36779;52.168;20.878;2023-04-27T12:30:32;100704.36;;;12.13;51.78
50682;BME280;36779;52.168;20.878;2023-04-27T12:33:20;100705.40;;;11.98;51.61
50682;BME280;36779;52.168;20.878;2023-04-27T12:35:52;100711.70;;;11.94;51.64
50682;BME280;36779;52.168;20.878;2023-04-27T12:38:35;100710.08;;;11.84;51.48
50682;BME280;36779;52.168;20.878;2023-04-27T12:41:28;100711.63;;;11.81;51.43
50682;BME280;36779;52.168;20.878;2023-04-27T12:44:21;100717.81;;;11.80;51.48
50682;BME280;36779;52.168;20.878;2023-04-27T12:47:14;100717.77;;;11.69;51.30
50682;BME280;36779;52.168;20.878;2023-04-27T12:50:26;100720.42;;;11.50;51.04
50682;BME280;36779;52.168;20.878;2023-04-27T12:53:19;100726.84;;;11.29;51.16
50682;BME280;36779;52.168;20.878;2023-04-27T12:56:11;100731.88;;;11.22;51.22
50682;BME280;36779;52.168;20.878;2023-04-27T12:59:05;100729.55;;;11.15;51.32
50682;BME280;36779;52.168;20.878;2023-04-27T13:01:57;100731.43;;;11.14;51.50
50682;BME280;36779;52.168;20.878;2023-04-27T13:04:51;100734.20;;;11.18;51.59
50682;BME280;36779;52.168;20.878;2023-04-27T13:07:44;100738.36;;;11.28;51.69
50682;BME280;36779;52.168;20.878;2023-04-27T13:10:38;100736.14;;;11.34;51.62
50682;BME280;36779;52.168;20.878;2023-04-27T13:13:31;100736.92;;;11.39;51.61
50682;BME280;36779;52.168;20.878;2023-04-27T13:16:24;100736.23;;;11.40;51.38
50682;BME280;36779;52.168;20.878;2023-04-27T13:19:17;100737.98;;;11.35;51.36
50682;BME280;36779;52.168;20.878;2023-04-27T13:22:10;100738.56;;;11.40;51.50
50682;BME280;36779;52.168;20.878;2023-04-27T13:25:03;100737.86;;;11.47;51.50
50682;BME280;36779;52.168;20.878;2023-04-27T13:27:57;100739.30;;;11.55;51.56
50682;BME280;36779;52.168;20.878;2023-04-27T13:30:51;100738.67;;;11.56;51.50
50682;BME280;36779;52.168;20.878;2023-04-27T13:33:41;100733.72;;;11.52;51.25
50682;BME280;36779;52.168;20.878;2023-04-27T13:36:33;100740.45;;;11.45;51.22
50682;BME280;36779;52.168;20.878;2023-04-27T13:39:26;100740.30;;;11.47;51.31
50682;BME280;36779;52.168;20.878;2023-04-27T13:42:19;100740.57;;;11.41;51.15
50682;BME280;36779;52.168;20.878;2023-04-27T13:45:12;100743.40;;;11.35;51.00
50682;BME280;36779;52.168;20.878;2023-04-27T13:48:05;100746.80;;;11.27;51.04
50682;BME280;36779;52.168;20.878;2023-04-27T13:50:58;100754.98;;;11.24;51.10
50682;BME280;36779;52.168;20.878;2023-04-27T13:53:51;100752.52;;;11.19;51.07
50682;BME280;36779;52.168;20.878;2023-04-27T13:56:36;100753.66;;;11.14;51.10
50682;BME280;36779;52.168;20.878;2023-04-27T13:59:29;100753.13;;;11.09;51.16
50682;BME280;36779;52.168;20.878;2023-04-27T14:02:23;100753.88;;;11.03;51.01
50682;BME280;36779;52.168;20.878;2023-04-27T14:05:17;100757.65;;;11.03;50.98
50682;BME280;36779;52.168;20.878;2023-04-27T14:08:10;100754.09;;;11.08;51.04
50682;BME280;36779;52.168;20.878;2023-04-27T14:11:02;100750.40;;;11.15;51.23
50682;BME280;36779;52.168;20.878;2023-04-27T14:13:56;100749.05;;;11.17;51.04
50682;BME280;36779;52.168;20.878;2023-04-27T14:16:49;100753.19;;;11.14;50.93
50682;BME280;36779;52.168;20.878;2023-04-27T14:19:42;100753.52;;;11.07;50.92
50682;BME280;36779;52.168;20.878;2023-04-27T14:22:35;100752.80;;;11.01;50.84
50682;BME280;36779;52.168;20.878;2023-04-27T14:25:29;100756.23;;;10.96;50.79
50682;BME280;36779;52.168;20.878;2023-04-27T14:28:23;100759.73;;;10.86;50.76
50682;BME280;36779;52.168;20.878;2023-04-27T14:31:17;100763.33;;;10.78;50.72
50682;BME280;36779;52.168;20.878;2023-04-27T14:34:10;100762.84;;;10.76;50.81
50682;BME280;36779;52.168;20.878;2023-04-27T14:37:04;100762.20;;;10.75;50.83
50682;BME280;36779;52.168;20.878;2023-04-27T14:39:57;100762.36;;;10.83;50.94
50682;BME280;36779;52.168;20.878;2023-04-27T14:42:50;100766.41;;;10.90;50.80
50682;BME280;36779;52.168;20.878;2023-04-27T14:45:42;100769.29;;;10.97;50.81
50682;BME280;36779;52.168;20.878;2023-04-27T14:48:48;100775.13;;;11.04;50.75
50682;BME280;36779;52.168;20.878;2023-04-27T14:51:41;100777.83;;;11.02;50.42
50682;BME280;36779;52.168;20.878;2023-04-27T14:54:29;100774.84;;;10.95;50.46
50682;BME280;36779;52.168;20.878;2023-04-27T14:57:22;100777.20;;;10.84;50.23